sensor_id;sensor_type;location;lat;lon;timestamp;pressure;altitude;pressure_sealevel;temperature;humidity
46408;BME280;32110;45.724;21.276;2022-10-17T02:05:55;101927.72;;;8.06;nan
46408;BME280;32110;45.724;21.276;2022-10-17T03:11:47;102002.22;;;7.88;nan
46408;BME280;32110;45.724;21.276;2022-10-17T04:10:04;102028.25;;;7.98;nan
46408;BME280;32110;45.724;21.276;2022-10-17T04:19:45;101986.16;;;7.75;nan
46408;BME280;32110;45.724;21.276;2022-10-17T11:28:28;102101.41;;;18.90;nan
46408;BME280;32110;45.724;21.276;2022-10-17T11:31:02;102080.56;;;19.04;nan
46408;BME280;32110;45.724;21.276;2022-10-17T11:36:14;102091.56;;;19.25;nan
46408;BME280;32110;45.724;21.276;2022-10-17T11:38:48;102081.88;;;19.19;nan
46408;BME280;32110;45.724;21.276;2022-10-17T11:46:24;102079.50;;;19.22;nan
46408;BME280;32110;45.724;21.276;2022-10-17T11:49:53;102080.66;;;19.26;nan
46408;BME280;32110;45.724;21.276;2022-10-17T11:57:34;102056.19;;;19.34;nan
46408;BME280;32110;45.724;21.276;2022-10-17T12:02:48;102064.56;;;19.55;nan
46408;BME280;32110;45.724;21.276;2022-10-17T12:05:27;102061.72;;;19.62;nan
46408;BME280;32110;45.724;21.276;2022-10-17T12:08:07;102006.41;;;19.62;nan
46408;BME280;32110;45.724;21.276;2022-10-17T12:18:17;102052.97;;;19.83;nan
46408;BME280;32110;45.724;21.276;2022-10-17T12:20:57;102068.84;;;19.90;nan
46408;BME280;32110;45.724;21.276;2022-10-17T12:23:28;102061.44;;;19.97;nan
46408;BME280;32110;45.724;21.276;2022-10-17T12:26:02;102068.34;;;20.15;nan
46408;BME280;32110;45.724;21.276;2022-10-17T12:31:20;102058.72;;;20.36;nan
46408;BME280;32110;45.724;21.276;2022-10-17T12:39:30;102069.47;;;20.41;nan
46408;BME280;32110;45.724;21.276;2022-10-17T12:46:49;102045.75;;;20.50;nan
46408;BME280;32110;45.724;21.276;2022-10-17T12:54:55;102046.69;;;20.60;nan
46408;BME280;32110;45.724;21.276;2022-10-17T13:03:04;102020.03;;;20.71;nan
46408;BME280;32110;45.724;21.276;2022-10-17T13:06:12;102028.72;;;20.83;nan
46408;BME280;32110;45.724;21.276;2022-10-17T13:08:43;102022.66;;;20.93;nan
46408;BME280;32110;45.724;21.276;2022-10-17T13:11:10;102010.66;;;21.00;nan
46408;BME280;32110;45.724;21.276;2022-10-17T13:13:40;102035.59;;;21.06;nan
46408;BME280;32110;45.724;21.276;2022-10-17T13:16:06;102005.34;;;21.06;nan
46408;BME280;32110;45.724;21.276;2022-10-17T13:18:32;102029.25;;;21.12;nan
46408;BME280;32110;45.724;21.276;2022-10-17T13:21:04;102012.88;;;21.14;nan
46408;BME280;32110;45.724;21.276;2022-10-17T13:23:35;102054.16;;;21.13;nan
46408;BME280;32110;45.724;21.276;2022-10-17T13:26:11;102013.34;;;21.00;nan
46408;BME280;32110;45.724;21.276;2022-10-17T13:28:37;102016.75;;;20.91;nan
46408;BME280;32110;45.724;21.276;2022-10-17T13:31:03;102011.69;;;20.99;nan
46408;BME280;32110;45.724;21.276;2022-10-17T13:33:32;102014.19;;;21.06;nan
46408;BME280;32110;45.724;21.276;2022-10-17T13:35:59;101997.78;;;20.97;nan
46408;BME280;32110;45.724;21.276;2022-10-17T13:38:29;102066.38;;;21.03;nan
46408;BME280;32110;45.724;21.276;2022-10-17T13:40:56;102014.50;;;21.10;nan
46408;BME280;32110;45.724;21.276;2022-10-17T13:43:22;101977.56;;;21.17;nan
46408;BME280;32110;45.724;21.276;2022-10-17T13:45:51;102006.78;;;21.23;nan
46408;BME280;32110;45.724;21.276;2022-10-17T13:48:23;102073.84;;;21.29;nan
46408;BME280;32110;45.724;21.276;2022-10-17T13:50:54;102014.41;;;21.37;nan
46408;BME280;32110;45.724;21.276;2022-10-17T13:53:33;101997.59;;;21.41;nan
46408;BME280;32110;45.724;21.276;2022-10-17T13:56:04;102020.94;;;21.46;nan
46408;BME280;32110;45.724;21.276;2022-10-17T13:58:38;102012.63;;;21.48;nan
46408;BME280;32110;45.724;21.276;2022-10-17T14:01:05;102009.69;;;21.49;nan
46408;BME280;32110;45.724;21.276;2022-10-17T14:03:31;102006.75;;;21.51;nan
46408;BME280;32110;45.724;21.276;2022-10-17T14:06:05;101994.97;;;21.52;nan
46408;BME280;32110;45.724;21.276;2022-10-17T14:08:35;101992.78;;;21.43;nan
46408;BME280;32110;45.724;21.276;2022-10-17T14:11:01;102009.69;;;21.49;nan
46408;BME280;32110;45.724;21.276;2022-10-17T14:13:29;102013.16;;;21.50;nan
46408;BME280;32110;45.724;21.276;2022-10-17T14:16:00;101996.53;;;21.48;nan
46408;BME280;32110;45.724;21.276;2022-10-17T14:18:34;102037.00;;;21.46;nan
46408;BME280;32110;45.724;21.276;2022-10-17T14:21:01;102020.63;;;21.42;nan
46408;BME280;32110;45.724;21.276;2022-10-17T14:23:38;102005.38;;;21.43;43.45
46408;BME280;32110;45.724;21.276;2022-10-17T14:26:24;102002.38;;;21.39;43.60
46408;BME280;32110;45.724;21.276;2022-10-17T14:29:17;102002.59;;;21.38;43.64
46408;BME280;32110;45.724;21.276;2022-10-17T14:34:21;101964.78;;;21.29;nan
46408;BME280;32110;45.724;21.276;2022-10-17T14:36:50;101975.97;;;21.21;nan
46408;BME280;32110;45.724;21.276;2022-10-17T14:39:22;101918.09;;;21.15;nan
46408;BME280;32110;45.724;21.276;2022-10-17T14:41:48;101947.06;;;21.23;nan
46408;BME280;32110;45.724;21.276;2022-10-17T14:46:53;101987.19;;;21.13;nan
46408;BME280;32110;45.724;21.276;2022-10-17T14:54:39;102002.63;;;21.00;nan
46408;BME280;32110;45.724;21.276;2022-10-17T14:57:24;101968.81;;;20.94;nan
46408;BME280;32110;45.724;21.276;2022-10-17T14:59:50;102014.63;;;20.93;nan
46408;BME280;32110;45.724;21.276;2022-10-17T15:02:16;102002.78;;;20.89;nan
46408;BME280;32110;45.724;21.276;2022-10-17T15:04:41;101978.34;;;20.80;nan
46408;BME280;32110;45.724;21.276;2022-10-17T15:07:13;102030.25;;;20.74;nan
46408;BME280;32110;45.724;21.276;2022-10-17T15:09:38;101984.16;;;20.72;nan
46408;BME280;32110;45.724;21.276;2022-10-17T15:12:06;101988.94;;;20.65;nan
46408;BME280;32110;45.724;21.276;2022-10-17T15:14:34;101996.97;;;20.65;nan
46408;BME280;32110;45.724;21.276;2022-10-17T15:17:00;101958.88;;;20.57;nan
46408;BME280;32110;45.724;21.276;2022-10-17T15:19:25;101937.13;;;20.54;nan
46408;BME280;32110;45.724;21.276;2022-10-17T15:21:50;102003.75;;;20.50;nan
46408;BME280;32110;45.724;21.276;2022-10-17T15:24:15;101988.19;;;20.47;nan
46408;BME280;32110;45.724;21.276;2022-10-17T15:29:06;101998.50;;;20.33;nan
46408;BME280;32110;45.724;21.276;2022-10-17T15:31:32;102000.50;;;20.21;nan
46408;BME280;32110;45.724;21.276;2022-10-17T15:33:57;102045.59;;;20.12;nan
46408;BME280;32110;45.724;21.276;2022-10-17T15:38:53;102019.13;;;19.94;nan
46408;BME280;32110;45.724;21.276;2022-10-17T15:41:21;102037.91;;;19.77;nan
46408;BME280;32110;45.724;21.276;2022-10-17T15:43:47;102044.94;;;19.66;nan
46408;BME280;32110;45.724;21.276;2022-10-17T15:46:19;101990.38;;;19.62;nan
46408;BME280;32110;45.724;21.276;2022-10-17T15:48:45;102009.16;;;19.50;nan
46408;BME280;32110;45.724;21.276;2022-10-17T15:51:11;102003.91;;;19.39;nan
46408;BME280;32110;45.724;21.276;2022-10-17T15:53:37;101989.03;;;19.26;nan
46408;BME280;32110;45.724;21.276;2022-10-17T15:56:03;102058.31;;;19.16;nan
46408;BME280;32110;45.724;21.276;2022-10-17T15:58:35;102018.00;;;19.17;nan
46408;BME280;32110;45.724;21.276;2022-10-17T16:01:01;102008.13;;;19.18;nan
46408;BME280;32110;45.724;21.276;2022-10-17T16:03:28;102007.75;;;19.09;nan
46408;BME280;32110;45.724;21.276;2022-10-17T16:05:54;102003.34;;;19.03;nan
46408;BME280;32110;45.724;21.276;2022-10-17T16:08:20;102001.69;;;18.97;nan
46408;BME280;32110;45.724;21.276;2022-10-17T16:10:45;101991.38;;;18.88;nan
46408;BME280;32110;45.724;21.276;2022-10-17T16:13:16;102013.13;;;18.80;nan
46408;BME280;32110;45.724;21.276;2022-10-17T16:15:42;101981.94;;;18.69;nan
46408;BME280;32110;45.724;21.276;2022-10-17T16:18:08;102001.81;;;18.61;nan
46408;BME280;32110;45.724;21.276;2022-10-17T16:20:33;101986.19;;;18.53;nan
46408;BME280;32110;45.724;21.276;2022-10-17T16:22:58;102001.22;;;18.42;nan
46408;BME280;32110;45.724;21.276;2022-10-17T16:27:54;102037.00;;;18.18;nan
46408;BME280;32110;45.724;21.276;2022-10-17T16:30:21;102051.28;;;18.00;nan
46408;BME280;32110;45.724;21.276;2022-10-17T16:32:47;102045.38;;;17.86;nan
46408;BME280;32110;45.724;21.276;2022-10-17T17:43:26;102078.34;;;15.03;nan
46408;BME280;32110;45.724;21.276;2022-10-17T17:45:52;102035.09;;;15.03;nan
46408;BME280;32110;45.724;21.276;2022-10-17T20:31:16;102118.56;;;11.33;nan
46408;BME280;32110;45.724;21.276;2022-10-17T22:42:38;102107.88;;;9.48;nan
